Sophie Blue — CRXK3 — position and weather

sailwx.info

Track history (hours):
 
Tides and Currents Weather Stations Pressure Air Temp Water Temp Dewpoint Dewpoint Depression Visibility Wind Speed Wind Dir Waves Ship Positions

Sophie Blue

Last reported at 2014-Aug-01 11:33 UTC. Time now 2014-Aug-01 11:51 UTC.
Position N 43°13' E 006°40'.

; draft 2.7 m.

Type: Other ship. MMSI: 255901270.

Date/timePositionNaut miles runAvg speedWind from/ knotsBaromVisibWave heightAir tempDewpointWater temp
2014-Aug-01 11:33N 43°13' E 006°40'7 5.3
2014-Aug-01 10:10N 43°08' E 006°33'812.6
2014-Aug-01 09:33N 43°07' E 006°23'1 0.5
2014-Aug-01 08:20N 43°07' E 006°22'0 0.0
2014-Aug-01 07:25N 43°07' E 006°22'0 0.0
2014-Aug-01 06:32N 43°07' E 006°22'0 0.0
2014-Aug-01 03:33N 43°07' E 006°22'0 0.0
2014-Aug-01 02:33N 43°07' E 006°22'0 0.0
2014-Aug-01 01:33N 43°07' E 006°22'0 0.0
2014-Aug-01 00:33N 43°07' E 006°22'0 0.0
2014-Jul-31 23:33N 43°07' E 006°22'0 0.0
2014-Jul-31 22:24N 43°07' E 006°22'0 0.0
2014-Jul-31 21:20N 43°07' E 006°22'0 0.0
2014-Jul-31 20:26N 43°07' E 006°22'0 0.0
2014-Jul-31 19:29N 43°07' E 006°22'0 0.0
2014-Jul-31 18:25N 43°07' E 006°22'0 0.0
2014-Jul-31 17:32N 43°07' E 006°22'2 2.3
2014-Jul-31 16:32N 43°05' E 006°21'2 2.3
2014-Jul-31 15:33N 43°06' E 006°19'0 0.0
2014-Jul-31 14:33N 43°06' E 006°19'0 0.0
2014-Jul-31 13:33N 43°06' E 006°19'0 0.0
2014-Jul-31 12:32N 43°06' E 006°19'0 0.0
2014-Jul-31 11:32N 43°06' E 006°19'0 0.1
2014-Jul-31 10:33N 43°06' E 006°19'  
2014-Jul-28 07:30N 43°08' E 006°22'0 0.0
2014-Jul-28 06:33N 43°08' E 006°22'0 0.0
2014-Jul-28 05:31N 43°08' E 006°22'0 0.0
2014-Jul-28 04:33N 43°08' E 006°22'1 0.1
2014-Jul-27 17:15N 43°07' E 006°22'3 3.9
2014-Jul-27 16:32N 43°06' E 006°19'0 0.0
2014-Jul-27 15:33N 43°06' E 006°19'0 0.0
2014-Jul-27 14:33N 43°06' E 006°19'0 0.0
2014-Jul-27 13:33N 43°06' E 006°19'0 0.0
2014-Jul-27 12:33N 43°06' E 006°19'0 0.0
2014-Jul-27 11:31N 43°06' E 006°19'0 0.0
2014-Jul-27 10:32N 43°06' E 006°19'2 0.1
2014-Jul-26 13:33N 43°07' E 006°22'0 0.0
2014-Jul-26 12:33N 43°07' E 006°22'0 0.1
2014-Jul-26 11:33N 43°07' E 006°22'0 0.0
2014-Jul-26 10:33N 43°07' E 006°22'2 0.0
2014-Jul-24 16:33N 43°05' E 006°23'3 3.0
2014-Jul-24 15:33N 43°06' E 006°19'0 0.0
2014-Jul-24 14:32N 43°06' E 006°19'0 0.0
2014-Jul-24 13:33N 43°06' E 006°19'0 0.0
2014-Jul-24 12:33N 43°06' E 006°19'0 0.0
2014-Jul-24 11:33N 43°06' E 006°19'0 0.0
2014-Jul-24 10:33N 43°06' E 006°19'3 0.2
2014-Jul-23 20:21N 43°07' E 006°22'3 0.8
2014-Jul-23 16:33N 43°05' E 006°19'1 0.9
2014-Jul-23 15:33N 43°06' E 006°19'0 0.0
2014-Jul-23 14:32N 43°06' E 006°19'0 0.0
2014-Jul-23 13:32N 43°06' E 006°19'0 0.0
2014-Jul-23 12:32N 43°06' E 006°19'0 0.0
2014-Jul-23 11:33N 43°06' E 006°19'0 0.4
2014-Jul-23 10:33N 43°06' E 006°19'3 0.2
2014-Jul-22 16:26N 43°07' E 006°23'3 3.3
2014-Jul-22 15:33N 43°06' E 006°19'0 0.0
2014-Jul-22 14:33N 43°06' E 006°19'0 0.0
2014-Jul-22 13:32N 43°06' E 006°19'0 0.0
2014-Jul-22 12:30N 43°06' E 006°19'  
Track history (hours):
 
Tides and Currents Weather Stations Pressure Air Temp Water Temp Dewpoint Dewpoint Depression Visibility Wind Speed Wind Dir Waves Ship Positions

Sophie Blue

Last reported at 2014-Aug-01 11:33 UTC. Time now 2014-Aug-01 11:51 UTC.
Position N 43°13' E 006°40'.

; draft 2.7 m.

Type: Other ship. MMSI: 255901270.

Date/timePositionNaut miles runAvg speedWind from/ knotsBaromVisibWave heightAir tempDewpointWater temp
2014-Aug-01 11:33N 43°13' E 006°40'7 5.3
2014-Aug-01 10:10N 43°08' E 006°33'812.6
2014-Aug-01 09:33N 43°07' E 006°23'1 0.5
2014-Aug-01 08:20N 43°07' E 006°22'0 0.0
2014-Aug-01 07:25N 43°07' E 006°22'0 0.0
2014-Aug-01 06:32N 43°07' E 006°22'0 0.0
2014-Aug-01 03:33N 43°07' E 006°22'0 0.0
2014-Aug-01 02:33N 43°07' E 006°22'0 0.0
2014-Aug-01 01:33N 43°07' E 006°22'0 0.0
2014-Aug-01 00:33N 43°07' E 006°22'0 0.0
2014-Jul-31 23:33N 43°07' E 006°22'0 0.0
2014-Jul-31 22:24N 43°07' E 006°22'0 0.0
2014-Jul-31 21:20N 43°07' E 006°22'0 0.0
2014-Jul-31 20:26N 43°07' E 006°22'0 0.0
2014-Jul-31 19:29N 43°07' E 006°22'0 0.0
2014-Jul-31 18:25N 43°07' E 006°22'0 0.0
2014-Jul-31 17:32N 43°07' E 006°22'2 2.3
2014-Jul-31 16:32N 43°05' E 006°21'2 2.3
2014-Jul-31 15:33N 43°06' E 006°19'0 0.0
2014-Jul-31 14:33N 43°06' E 006°19'0 0.0
2014-Jul-31 13:33N 43°06' E 006°19'0 0.0
2014-Jul-31 12:32N 43°06' E 006°19'0 0.0
2014-Jul-31 11:32N 43°06' E 006°19'0 0.1
2014-Jul-31 10:33N 43°06' E 006°19'  
2014-Jul-28 07:30N 43°08' E 006°22'0 0.0
2014-Jul-28 06:33N 43°08' E 006°22'0 0.0
2014-Jul-28 05:31N 43°08' E 006°22'0 0.0
2014-Jul-28 04:33N 43°08' E 006°22'1 0.1
2014-Jul-27 17:15N 43°07' E 006°22'3 3.9
2014-Jul-27 16:32N 43°06' E 006°19'0 0.0
2014-Jul-27 15:33N 43°06' E 006°19'0 0.0
2014-Jul-27 14:33N 43°06' E 006°19'0 0.0
2014-Jul-27 13:33N 43°06' E 006°19'0 0.0
2014-Jul-27 12:33N 43°06' E 006°19'0 0.0
2014-Jul-27 11:31N 43°06' E 006°19'0 0.0
2014-Jul-27 10:32N 43°06' E 006°19'2 0.1
2014-Jul-26 13:33N 43°07' E 006°22'0 0.0
2014-Jul-26 12:33N 43°07' E 006°22'0 0.1
2014-Jul-26 11:33N 43°07' E 006°22'0 0.0
2014-Jul-26 10:33N 43°07' E 006°22'2 0.0
2014-Jul-24 16:33N 43°05' E 006°23'3 3.0
2014-Jul-24 15:33N 43°06' E 006°19'0 0.0
2014-Jul-24 14:32N 43°06' E 006°19'0 0.0
2014-Jul-24 13:33N 43°06' E 006°19'0 0.0
2014-Jul-24 12:33N 43°06' E 006°19'0 0.0
2014-Jul-24 11:33N 43°06' E 006°19'0 0.0
2014-Jul-24 10:33N 43°06' E 006°19'3 0.2
2014-Jul-23 20:21N 43°07' E 006°22'3 0.8
2014-Jul-23 16:33N 43°05' E 006°19'1 0.9
2014-Jul-23 15:33N 43°06' E 006°19'0 0.0
2014-Jul-23 14:32N 43°06' E 006°19'0 0.0
2014-Jul-23 13:32N 43°06' E 006°19'0 0.0
2014-Jul-23 12:32N 43°06' E 006°19'0 0.0
2014-Jul-23 11:33N 43°06' E 006°19'0 0.4
2014-Jul-23 10:33N 43°06' E 006°19'3 0.2
2014-Jul-22 16:26N 43°07' E 006°23'3 3.3
2014-Jul-22 15:33N 43°06' E 006°19'0 0.0
2014-Jul-22 14:33N 43°06' E 006°19'0 0.0
2014-Jul-22 13:32N 43°06' E 006°19'0 0.0
2014-Jul-22 12:30N 43°06' E 006°19'  

Dump ship's entire track history